Glen Dale, West Virginia
Current Conditions -  °F | °C
As of 3:53 PM on Thursday 23 Oct 2014 (Local Time) from KHLG Reporting Station
Broken Clouds Broken Clouds  
Wind Chill: 57°   Ceiling: 3600
Heat Index: 57°   Visibility: 10mi
Dew Point: 43°   Wind: 9mph
Humidity: 59%   Direction: 320°NW
Pressure: 30.09"   Gusts: NA
Location:  39.95°N, 80.76°W
Report Text: KHLG 231953Z 32008KT 10SM BKN036 14/06 A3009 RMK AO2 SLP194 T01390061
Loading
Personal Weather Stations






























Interactive Weather Map
Tropical Storm Tracking
New forecast layout! Learn more

10-Day Weather Forecast

Advertisements
Track Severe Weather on mobile